Time,TemperatureF,DewpointF,PressureIn,WindDirection,WindDirectionDegrees,WindSpeedMPH,WindSpeedGustMPH,Humidity,HourlyPrecipIn,Conditions,Clouds,dailyrainin,SoftwareType,DateUTC
2013-05-21 00:01:00,65.8,63.1,30.10,East,90,0.0,0.0,91,0.00,,,0.00,pywws,2013-05-21 04:01:00,
2013-05-21 00:02:00,65.8,63.1,30.10,East,90,0.0,0.0,91,0.00,,,0.00,pywws,2013-05-21 04:02:00,
2013-05-21 00:04:00,65.8,63.1,30.10,East,90,0.0,0.0,91,0.00,,,0.00,pywws,2013-05-21 04:04:00,
2013-05-21 00:05:00,65.8,63.1,30.10,East,90,0.0,0.0,91,0.00,,,0.00,pywws,2013-05-21 04:05:00,
2013-05-21 00:07:00,65.5,62.8,30.10,NW,315,0.7,2.2,91,0.00,,,0.00,pywws,2013-05-21 04:07:00,
2013-05-21 00:12:00,65.3,62.9,30.10,SW,225,0.0,1.6,92,0.00,,,0.00,pywws,2013-05-21 04:12:00,
2013-05-21 00:18:00,65.1,62.7,30.10,West,270,0.0,0.7,92,0.00,,,0.00,pywws,2013-05-21 04:18:00,
2013-05-21 00:24:00,65.1,63.0,30.10,East,90,0.7,1.6,93,0.00,,,0.00,pywws,2013-05-21 04:24:00,
2013-05-21 00:29:00,65.1,63.3,30.10,SE,135,0.7,1.6,94,0.00,,,0.00,pywws,2013-05-21 04:29:00,
2013-05-21 00:35:00,64.9,63.2,30.10,ESE,112,1.6,3.1,94,0.00,,,0.00,pywws,2013-05-21 04:35:00,
2013-05-21 00:40:00,64.4,62.6,30.09,North,0,1.6,3.1,94,0.00,,,0.00,pywws,2013-05-21 04:40:00,
2013-05-21 00:46:00,64.6,63.1,30.09,SE,135,0.7,2.2,95,0.00,,,0.00,pywws,2013-05-21 04:46:00,
2013-05-21 00:52:00,64.6,63.1,30.10,ESE,112,1.6,2.2,95,0.00,,,0.00,pywws,2013-05-21 04:52:00,
2013-05-21 00:57:00,64.6,63.1,30.09,West,270,0.7,1.6,95,0.00,,,0.00,pywws,2013-05-21 04:57:00,
2013-05-21 01:03:00,64.4,62.9,30.09,NE,45,0.0,1.6,95,0.00,,,0.00,pywws,2013-05-21 05:03:00,
2013-05-21 01:08:00,64.4,62.9,30.09,NW,315,0.7,1.6,95,0.00,,,0.00,pywws,2013-05-21 05:08:00,
2013-05-21 01:14:00,64.4,62.9,30.09,SSE,158,0.0,0.7,95,0.00,,,0.00,pywws,2013-05-21 05:14:00,
2013-05-21 01:19:00,64.4,62.9,30.09,SW,225,0.7,1.6,95,0.00,,,0.00,pywws,2013-05-21 05:19:00,
2013-05-21 01:25:00,64.2,62.5,30.09,South,180,0.7,1.6,94,0.00,,,0.00,pywws,2013-05-21 05:25:00,
2013-05-21 01:31:00,64.2,62.5,30.09,North,0,0.0,0.7,94,0.00,,,0.00,pywws,2013-05-21 05:31:00,
2013-05-21 01:36:00,64.0,62.3,30.09,SE,135,0.7,1.6,94,0.00,,,0.00,pywws,2013-05-21 05:36:00,
2013-05-21 01:42:00,64.0,62.3,30.09,West,270,3.1,3.8,94,0.00,,,0.00,pywws,2013-05-21 05:42:00,
2013-05-21 01:47:00,63.9,62.1,30.09,South,180,0.0,1.6,94,0.00,,,0.00,pywws,2013-05-21 05:47:00,
2013-05-21 01:53:00,63.7,61.9,30.08,ENE,68,0.0,0.7,94,0.00,,,0.00,pywws,2013-05-21 05:53:00,
2013-05-21 01:59:00,63.5,61.7,30.08,East,90,0.7,1.6,94,0.00,,,0.00,pywws,2013-05-21 05:59:00,
2013-05-21 02:04:00,63.5,61.7,30.08,South,180,0.0,0.7,94,0.00,,,0.00,pywws,2013-05-21 06:04:00,
2013-05-21 02:10:00,63.3,61.6,30.08,SE,135,0.0,0.7,94,0.00,,,0.00,pywws,2013-05-21 06:10:00,
2013-05-21 02:17:00,63.1,61.4,30.08,SW,225,0.0,0.7,94,0.00,,,0.00,pywws,2013-05-21 06:17:00,
2013-05-21 02:23:00,63.1,61.4,30.08,South,180,0.7,1.6,94,0.00,,,0.00,pywws,2013-05-21 06:23:00,
2013-05-21 02:28:00,63.1,61.4,30.08,South,180,0.7,1.6,94,0.00,,,0.00,pywws,2013-05-21 06:28:00,
2013-05-21 02:34:00,63.1,61.4,30.08,South,180,0.7,2.2,94,0.00,,,0.00,pywws,2013-05-21 06:34:00,
2013-05-21 02:39:00,63.0,61.2,30.08,SE,135,0.0,0.0,94,0.00,,,0.00,pywws,2013-05-21 06:39:00,
2013-05-21 02:45:00,62.8,61.0,30.09,SW,225,0.0,1.6,94,0.00,,,0.00,pywws,2013-05-21 06:45:00,
2013-05-21 02:51:00,62.6,60.8,30.09,West,270,0.0,0.0,94,0.00,,,0.00,pywws,2013-05-21 06:51:00,
2013-05-21 02:56:00,62.4,61.0,30.09,SE,135,0.0,0.0,95,0.00,,,0.00,pywws,2013-05-21 06:56:00,
2013-05-21 03:02:00,62.1,60.6,30.09,SE,135,0.0,0.0,95,0.00,,,0.00,pywws,2013-05-21 07:02:00,
2013-05-21 03:07:00,61.7,60.3,30.09,SE,135,0.0,0.0,95,0.00,,,0.00,pywws,2013-05-21 07:07:00,
2013-05-21 03:13:00,61.5,60.1,30.09,SW,225,0.0,0.7,95,0.00,,,0.00,pywws,2013-05-21 07:13:00,
2013-05-21 03:19:00,61.5,60.1,30.09,North,0,0.0,0.7,95,0.00,,,0.00,pywws,2013-05-21 07:19:00,
2013-05-21 03:24:00,61.5,60.1,30.09,SW,225,0.0,0.7,95,0.00,,,0.00,pywws,2013-05-21 07:24:00,
2013-05-21 03:30:00,61.3,59.9,30.09,SW,225,0.0,0.0,95,0.00,,,0.00,pywws,2013-05-21 07:30:00,
2013-05-21 03:35:00,61.2,59.7,30.09,North,0,0.0,0.7,95,0.00,,,0.00,pywws,2013-05-21 07:35:00,
2013-05-21 03:41:00,61.0,59.5,30.09,SW,225,0.0,0.7,95,0.00,,,0.00,pywws,2013-05-21 07:41:00,
2013-05-21 03:47:00,61.2,60.0,30.09,SW,225,0.0,0.0,96,0.00,,,0.00,pywws,2013-05-21 07:47:00,
2013-05-21 03:53:00,61.2,60.0,30.09,East,90,0.7,0.7,96,0.00,,,0.00,pywws,2013-05-21 07:53:00,
2013-05-21 04:08:00,61.3,60.2,30.09,NW,315,0.0,0.0,96,0.00,,,0.00,pywws,2013-05-21 08:08:00,
2013-05-21 04:14:00,61.5,60.7,30.08,NW,315,0.0,0.0,97,0.00,,,0.00,pywws,2013-05-21 08:14:00,
2013-05-21 04:21:00,61.5,60.7,30.08,NW,315,0.0,0.0,97,0.00,,,0.00,pywws,2013-05-21 08:21:00,
2013-05-21 04:27:00,61.5,60.7,30.08,South,180,0.0,0.0,97,0.00,,,0.00,pywws,2013-05-21 08:27:00,
2013-05-21 04:32:00,61.7,61.1,30.08,North,0,0.0,0.0,98,0.00,,,0.00,pywws,2013-05-21 08:32:00,
2013-05-21 04:38:00,61.9,61.3,30.08,South,180,0.7,1.6,98,0.00,,,0.00,pywws,2013-05-21 08:38:00,
2013-05-21 04:43:00,62.1,61.5,30.08,West,270,0.7,1.6,98,0.00,,,0.00,pywws,2013-05-21 08:43:00,
2013-05-21 04:49:00,62.1,61.5,30.09,SE,135,0.0,0.0,98,0.00,,,0.00,pywws,2013-05-21 08:49:00,
2013-05-21 04:55:00,62.1,61.5,30.08,NE,45,0.7,2.2,98,0.00,,,0.00,pywws,2013-05-21 08:55:00,
2013-05-21 05:00:00,62.1,61.5,30.08,West,270,0.7,2.2,98,0.00,,,0.00,pywws,2013-05-21 09:00:00,
2013-05-21 05:07:00,61.9,61.3,30.08,NE,45,0.0,0.0,98,0.00,,,0.00,pywws,2013-05-21 09:07:00,
2013-05-21 05:12:00,61.7,61.1,30.08,West,270,0.0,0.7,98,0.00,,,0.00,pywws,2013-05-21 09:12:00,
2013-05-21 05:18:00,61.7,61.1,30.08,South,180,1.6,3.1,98,0.00,,,0.00,pywws,2013-05-21 09:18:00,
2013-05-21 05:23:00,61.7,61.1,30.08,West,270,0.7,1.6,98,0.00,,,0.00,pywws,2013-05-21 09:23:00,
2013-05-21 05:29:00,61.7,61.1,30.08,West,270,0.0,0.7,98,0.00,,,0.00,pywws,2013-05-21 09:29:00,
2013-05-21 05:35:00,61.7,61.1,30.09,SSW,202,0.0,1.6,98,0.00,,,0.00,pywws,2013-05-21 09:35:00,
2013-05-21 05:40:00,61.7,61.1,30.09,NW,315,0.0,0.7,98,0.00,,,0.00,pywws,2013-05-21 09:40:00,
2013-05-21 05:46:00,61.7,61.1,30.09,South,180,0.0,1.6,98,0.00,,,0.00,pywws,2013-05-21 09:46:00,
2013-05-21 05:51:00,61.9,61.3,30.09,SW,225,1.6,2.2,98,0.00,,,0.00,pywws,2013-05-21 09:51:00,
2013-05-21 05:57:00,61.9,61.3,30.09,West,270,0.0,1.6,98,0.00,,,0.00,pywws,2013-05-21 09:57:00,
2013-05-21 06:07:00,62.1,61.5,30.10,East,90,0.7,2.2,98,0.00,,,0.00,pywws,2013-05-21 10:07:00,
2013-05-21 06:12:00,62.1,61.5,30.09,NE,45,0.0,0.7,98,0.00,,,0.00,pywws,2013-05-21 10:12:00,
2013-05-21 06:18:00,62.1,61.5,30.09,SW,225,0.0,0.0,98,0.00,,,0.00,pywws,2013-05-21 10:18:00,
2013-05-21 06:24:00,62.1,61.5,30.09,NE,45,0.0,0.0,98,0.00,,,0.00,pywws,2013-05-21 10:24:00,
2013-05-21 06:31:00,62.1,61.5,30.09,NE,45,0.0,0.0,98,0.00,,,0.00,pywws,2013-05-21 10:31:00,
2013-05-21 06:37:00,62.1,61.5,30.10,NE,45,0.0,0.0,98,0.00,,,0.00,pywws,2013-05-21 10:37:00,
2013-05-21 06:43:00,62.1,61.5,30.10,SE,135,0.0,0.0,98,0.00,,,0.00,pywws,2013-05-21 10:43:00,
2013-05-21 06:48:00,61.9,61.3,30.10,SE,135,0.0,0.0,98,0.00,,,0.00,pywws,2013-05-21 10:48:00,
2013-05-21 06:55:00,61.7,61.1,30.10,SE,135,0.0,0.0,98,0.00,,,0.00,pywws,2013-05-21 10:55:00,
2013-05-21 07:00:00,61.9,61.3,30.10,SE,135,0.0,0.0,98,0.00,,,0.00,pywws,2013-05-21 11:00:00,
2013-05-21 07:06:00,62.1,61.5,30.11,North,0,0.0,0.0,98,0.00,,,0.00,pywws,2013-05-21 11:06:00,
2013-05-21 07:11:00,62.1,61.5,30.11,South,180,0.0,0.7,98,0.00,,,0.00,pywws,2013-05-21 11:11:00,
2013-05-21 07:17:00,62.1,61.5,30.11,NW,315,0.0,0.7,98,0.00,,,0.00,pywws,2013-05-21 11:17:00,
2013-05-21 07:24:00,62.4,61.8,30.11,NW,315,0.0,0.0,98,0.00,,,0.00,pywws,2013-05-21 11:24:00,
2013-05-21 07:30:00,62.6,61.7,30.11,SW,225,0.0,0.0,97,0.00,,,0.00,pywws,2013-05-21 11:30:00,
2013-05-21 07:38:00,63.0,62.1,30.11,South,180,0.0,0.0,97,0.00,,,0.00,pywws,2013-05-21 11:38:00,
2013-05-21 07:44:00,63.1,62.3,30.11,NE,45,0.0,0.7,97,0.00,,,0.00,pywws,2013-05-21 11:44:00,
2013-05-21 07:51:00,63.3,62.5,30.11,NE,45,0.0,0.7,97,0.00,,,0.00,pywws,2013-05-21 11:51:00,
2013-05-21 07:57:00,63.5,62.6,30.11,South,180,0.0,0.0,97,0.00,,,0.00,pywws,2013-05-21 11:57:00,
2013-05-21 08:03:00,63.7,62.8,30.11,SW,225,0.0,0.0,97,0.00,,,0.00,pywws,2013-05-21 12:03:00,
2013-05-21 08:08:00,63.9,63.0,30.11,SW,225,0.7,1.6,97,0.00,,,0.00,pywws,2013-05-21 12:08:00,
2013-05-21 08:15:00,64.2,63.3,30.11,SW,225,0.0,0.0,97,0.00,,,0.00,pywws,2013-05-21 12:15:00,
2013-05-21 08:20:00,64.6,64.3,30.11,NE,45,0.0,0.7,99,0.00,,,0.00,pywws,2013-05-21 12:20:00,
2013-05-21 08:27:00,64.6,64.0,30.11,NE,45,0.0,0.7,98,0.00,,,0.00,pywws,2013-05-21 12:27:00,
2013-05-21 08:33:00,64.9,64.1,30.11,NE,45,0.7,0.7,97,0.00,,,0.00,pywws,2013-05-21 12:33:00,
2013-05-21 08:39:00,65.1,64.2,30.11,East,90,0.0,0.7,97,0.00,,,0.00,pywws,2013-05-21 12:39:00,
2013-05-21 08:44:00,65.5,64.3,30.11,NE,45,0.0,0.7,96,0.00,,,0.00,pywws,2013-05-21 12:44:00,
2013-05-21 08:50:00,65.8,64.7,30.11,NE,45,0.0,0.0,96,0.00,,,0.00,pywws,2013-05-21 12:50:00,
2013-05-21 08:55:00,66.2,64.4,30.11,NE,45,0.7,0.7,94,0.00,,,0.00,pywws,2013-05-21 12:55:00,
2013-05-21 09:01:00,66.4,64.6,30.12,South,180,0.0,0.0,94,0.00,,,0.00,pywws,2013-05-21 13:01:00,
2013-05-21 09:07:00,67.1,65.0,30.12,North,0,0.0,0.0,93,0.00,,,0.00,pywws,2013-05-21 13:07:00,
2013-05-21 09:12:00,68.0,65.3,30.13,NE,45,0.7,1.6,91,0.00,,,0.00,pywws,2013-05-21 13:12:00,
2013-05-21 09:18:00,68.7,65.3,30.13,North,0,0.0,0.7,89,0.00,,,0.00,pywws,2013-05-21 13:18:00,
2013-05-21 09:23:00,69.1,65.0,30.13,West,270,2.2,4.5,87,0.00,,,0.00,pywws,2013-05-21 13:23:00,
2013-05-21 09:29:00,69.3,64.9,30.13,SW,225,0.0,0.7,86,0.00,,,0.00,pywws,2013-05-21 13:29:00,
2013-05-21 09:35:00,69.6,64.9,30.13,NE,45,0.0,0.7,85,0.00,,,0.00,pywws,2013-05-21 13:35:00,
2013-05-21 09:40:00,70.3,64.9,30.13,NE,45,0.7,1.6,83,0.00,,,0.00,pywws,2013-05-21 13:40:00,
2013-05-21 09:46:00,70.9,65.1,30.13,NE,45,0.7,1.6,82,0.00,,,0.00,pywws,2013-05-21 13:46:00,
2013-05-21 09:51:00,71.6,65.5,30.13,NE,45,0.0,0.7,81,0.00,,,0.00,pywws,2013-05-21 13:51:00,
2013-05-21 09:57:00,75.2,67.1,30.12,East,90,0.7,1.6,76,0.00,,,0.00,pywws,2013-05-21 13:57:00,
2013-05-21 10:03:00,77.9,66.0,30.12,East,90,0.7,1.6,67,0.00,,,0.00,pywws,2013-05-21 14:03:00,
2013-05-21 10:08:00,77.2,64.9,30.12,NW,315,0.0,0.7,66,0.00,,,0.00,pywws,2013-05-21 14:08:00,
2013-05-21 10:14:00,76.8,65.4,30.12,NW,315,2.2,3.1,68,0.00,,,0.00,pywws,2013-05-21 14:14:00,
2013-05-21 10:19:00,78.4,66.6,30.12,South,180,0.0,1.6,67,0.00,,,0.00,pywws,2013-05-21 14:19:00,
2013-05-21 10:25:00,80.2,66.9,30.12,SE,135,0.0,1.6,64,0.00,,,0.00,pywws,2013-05-21 14:25:00,
2013-05-21 10:31:00,82.0,66.3,30.12,East,90,0.7,1.6,59,0.00,,,0.00,pywws,2013-05-21 14:31:00,
2013-05-21 10:36:00,82.8,66.4,30.12,NE,45,0.7,1.6,58,0.00,,,0.00,pywws,2013-05-21 14:36:00,
2013-05-21 10:43:00,82.4,65.6,30.12,East,90,0.7,1.6,57,0.00,,,0.00,pywws,2013-05-21 14:43:00,
2013-05-21 10:48:00,82.9,66.1,30.11,West,270,0.0,0.7,57,0.00,,,0.00,pywws,2013-05-21 14:48:00,
2013-05-21 10:54:00,84.0,66.6,30.11,East,90,0.7,1.6,56,0.00,,,0.00,pywws,2013-05-21 14:54:00,
2013-05-21 10:59:00,84.4,65.9,30.11,South,180,0.0,0.7,54,0.00,,,0.00,pywws,2013-05-21 14:59:00,
2013-05-21 11:05:00,84.6,66.6,30.11,NE,45,2.2,4.5,55,0.00,,,0.00,pywws,2013-05-21 15:05:00,
2013-05-21 11:11:00,84.7,67.3,30.11,West,270,0.0,1.6,56,0.00,,,0.00,pywws,2013-05-21 15:11:00,
2013-05-21 11:16:00,86.4,66.6,30.11,NE,45,0.7,1.6,52,0.00,,,0.00,pywws,2013-05-21 15:16:00,
2013-05-21 11:22:00,86.2,65.9,30.11,South,180,0.7,1.6,51,0.00,,,0.00,pywws,2013-05-21 15:22:00,
2013-05-21 11:27:00,86.9,65.4,30.11,NE,45,0.0,0.7,49,0.00,,,0.00,pywws,2013-05-21 15:27:00,
2013-05-21 11:33:00,88.0,66.4,30.11,NE,45,1.6,2.2,49,0.00,,,0.00,pywws,2013-05-21 15:33:00,
2013-05-21 11:39:00,88.0,65.2,30.11,NE,45,1.6,3.1,47,0.00,,,0.00,pywws,2013-05-21 15:39:00,
2013-05-21 11:44:00,86.9,64.8,30.11,NE,45,0.7,1.6,48,0.00,,,0.00,pywws,2013-05-21 15:44:00,
2013-05-21 11:51:00,87.3,65.1,30.11,North,0,2.2,5.4,48,0.00,,,0.00,pywws,2013-05-21 15:51:00,
2013-05-21 11:56:00,85.8,65.0,30.11,NE,45,1.6,2.2,50,0.00,,,0.00,pywws,2013-05-21 15:56:00,
2013-05-21 12:02:00,86.4,66.1,30.11,SW,225,0.7,2.2,51,0.00,,,0.00,pywws,2013-05-21 16:02:00,
2013-05-21 12:07:00,88.3,65.5,30.11,South,180,0.7,1.6,47,0.00,,,0.00,pywws,2013-05-21 16:07:00,
2013-05-21 12:13:00,88.2,64.7,30.11,NE,45,0.7,1.6,46,0.00,,,0.00,pywws,2013-05-21 16:13:00,
2013-05-21 12:20:00,88.0,65.2,30.11,NE,45,0.7,1.6,47,0.00,,,0.00,pywws,2013-05-21 16:20:00,
2013-05-21 12:26:00,88.5,64.4,30.11,NE,45,0.7,1.6,45,0.00,,,0.00,pywws,2013-05-21 16:26:00,
2013-05-21 12:31:00,86.9,64.8,30.11,North,0,0.7,2.2,48,0.00,,,0.00,pywws,2013-05-21 16:31:00,
2013-05-21 12:37:00,86.9,64.8,30.10,North,0,0.7,2.2,48,0.00,,,0.00,pywws,2013-05-21 16:37:00,
2013-05-21 12:43:00,86.9,64.2,30.10,NE,45,1.6,3.1,47,0.00,,,0.00,pywws,2013-05-21 16:43:00,
2013-05-21 12:48:00,86.7,64.0,30.10,NE,45,0.7,1.6,47,0.00,,,0.00,pywws,2013-05-21 16:48:00,
2013-05-21 12:54:00,87.6,64.2,30.10,NW,315,0.7,1.6,46,0.00,,,0.00,pywws,2013-05-21 16:54:00,
2013-05-21 12:59:00,89.6,64.8,30.09,North,0,0.7,1.6,44,0.00,,,0.00,pywws,2013-05-21 16:59:00,
2013-05-21 13:05:00,90.0,64.4,30.09,North,0,1.6,1.6,43,0.00,,,0.00,pywws,2013-05-21 17:05:00,
2013-05-21 13:11:00,88.9,64.1,30.09,NE,45,1.6,2.2,44,0.00,,,0.00,pywws,2013-05-21 17:11:00,
2013-05-21 13:16:00,88.7,64.6,30.09,East,90,1.6,2.2,45,0.00,,,0.00,pywws,2013-05-21 17:16:00,
2013-05-21 13:22:00,88.3,63.6,30.09,NE,45,1.6,2.2,44,0.00,,,0.00,pywws,2013-05-21 17:22:00,
2013-05-21 13:27:00,86.9,63.0,30.08,NE,45,1.6,2.2,45,0.00,,,0.00,pywws,2013-05-21 17:27:00,
2013-05-21 13:34:00,87.4,63.5,30.08,East,90,0.7,1.6,45,0.00,,,0.00,pywws,2013-05-21 17:34:00,
2013-05-21 13:39:00,89.2,64.4,30.08,North,0,0.7,1.6,44,0.00,,,0.00,pywws,2013-05-21 17:39:00,
2013-05-21 13:45:00,91.2,64.9,30.07,East,90,1.6,2.2,42,0.00,,,0.00,pywws,2013-05-21 17:45:00,
2013-05-21 13:51:00,91.0,64.7,30.07,NE,45,0.0,1.6,42,0.00,,,0.00,pywws,2013-05-21 17:51:00,
2013-05-21 13:56:00,90.7,63.7,30.07,East,90,0.7,2.2,41,0.00,,,0.00,pywws,2013-05-21 17:56:00,
2013-05-21 14:02:00,90.7,64.4,30.06,NE,45,2.2,3.8,42,0.00,,,0.00,pywws,2013-05-21 18:02:00,
2013-05-21 14:07:00,87.3,62.6,30.06,East,90,0.0,0.7,44,0.00,,,0.00,pywws,2013-05-21 18:07:00,
2013-05-21 14:13:00,88.0,62.0,30.06,NE,45,0.7,1.6,42,0.00,,,0.00,pywws,2013-05-21 18:13:00,
2013-05-21 14:19:00,89.1,63.6,30.06,NE,45,2.2,3.1,43,0.00,,,0.00,pywws,2013-05-21 18:19:00,
2013-05-21 14:24:00,88.9,62.8,30.06,NE,45,2.2,3.1,42,0.00,,,0.00,pywws,2013-05-21 18:24:00,
2013-05-21 14:30:00,88.7,62.6,30.06,ENE,68,1.6,3.1,42,0.00,,,0.00,pywws,2013-05-21 18:30:00,
2013-05-21 14:35:00,90.1,63.2,30.06,SW,225,0.0,0.7,41,0.00,,,0.00,pywws,2013-05-21 18:35:00,
2013-05-21 14:41:00,91.4,63.6,30.06,NNE,22,0.0,1.6,40,0.00,,,0.00,pywws,2013-05-21 18:41:00,
2013-05-21 14:47:00,91.8,63.2,30.06,NE,45,1.6,3.1,39,0.00,,,0.00,pywws,2013-05-21 18:47:00,
2013-05-21 14:52:00,93.0,64.3,30.06,NE,45,0.7,1.6,39,0.00,,,0.00,pywws,2013-05-21 18:52:00,
2013-05-21 14:58:00,92.8,64.9,30.06,NE,45,1.6,2.2,40,0.00,,,0.00,pywws,2013-05-21 18:58:00,
2013-05-21 15:03:00,90.9,63.9,30.05,North,0,0.7,2.2,41,0.00,,,0.00,pywws,2013-05-21 19:03:00,
2013-05-21 15:09:00,89.2,63.1,30.05,SW,225,0.7,2.2,42,0.00,,,0.00,pywws,2013-05-21 19:09:00,
2013-05-21 15:15:00,89.6,61.3,30.05,SW,225,0.7,1.6,39,0.00,,,0.00,pywws,2013-05-21 19:15:00,
2013-05-21 15:20:00,88.5,61.8,30.04,South,180,1.6,2.2,41,0.00,,,0.00,pywws,2013-05-21 19:20:00,
2013-05-21 15:26:00,87.6,62.3,30.04,SW,225,1.6,3.1,43,0.00,,,0.00,pywws,2013-05-21 19:26:00,
2013-05-21 15:31:00,86.2,61.0,30.03,SW,225,0.7,1.6,43,0.00,,,0.00,pywws,2013-05-21 19:31:00,
2013-05-21 15:38:00,85.8,63.2,30.03,North,0,0.0,0.7,47,0.00,,,0.00,pywws,2013-05-21 19:38:00,
2013-05-21 15:43:00,86.5,62.0,30.03,South,180,0.7,1.6,44,0.00,,,0.00,pywws,2013-05-21 19:43:00,
2013-05-21 15:49:00,87.1,63.1,30.04,NW,315,1.6,3.1,45,0.00,,,0.00,pywws,2013-05-21 19:49:00,
2013-05-21 15:55:00,87.4,64.1,30.03,WNW,292,2.2,5.4,46,0.00,,,0.00,pywws,2013-05-21 19:55:00,
2013-05-21 16:03:00,89.6,63.4,30.03,WSW,248,2.2,4.5,42,0.00,,,0.00,pywws,2013-05-21 20:03:00,
2013-05-21 16:09:00,92.3,65.1,30.03,West,270,1.6,3.1,41,0.00,,,0.00,pywws,2013-05-21 20:09:00,
2013-05-21 16:15:00,91.0,64.0,30.03,NW,315,3.1,5.4,41,0.00,,,0.00,pywws,2013-05-21 20:15:00,
2013-05-21 16:20:00,91.4,65.7,30.03,East,90,0.7,2.2,43,0.00,,,0.00,pywws,2013-05-21 20:20:00,
2013-05-21 16:26:00,94.3,65.5,30.03,WNW,292,2.2,3.1,39,0.00,,,0.00,pywws,2013-05-21 20:26:00,
2013-05-21 16:31:00,95.9,66.9,30.02,South,180,2.2,4.5,39,0.00,,,0.00,pywws,2013-05-21 20:31:00,
2013-05-21 16:37:00,95.5,64.3,30.02,SW,225,1.6,2.2,36,0.00,,,0.00,pywws,2013-05-21 20:37:00,
2013-05-21 16:43:00,93.9,64.4,30.02,SE,135,3.1,5.4,38,0.00,,,0.00,pywws,2013-05-21 20:43:00,
2013-05-21 16:48:00,92.7,63.3,30.01,East,90,1.6,4.5,38,0.00,,,0.00,pywws,2013-05-21 20:48:00,
2013-05-21 16:54:00,91.9,62.7,30.01,SW,225,3.1,4.5,38,0.00,,,0.00,pywws,2013-05-21 20:54:00,
2013-05-21 16:59:00,91.8,62.5,30.01,SE,135,3.8,6.0,38,0.00,,,0.00,pywws,2013-05-21 20:59:00,
2013-05-21 17:05:00,92.1,63.6,30.01,West,270,1.6,2.2,39,0.00,,,0.00,pywws,2013-05-21 21:05:00,
2013-05-21 17:11:00,91.9,63.4,30.01,SSW,202,2.2,3.8,39,0.00,,,0.00,pywws,2013-05-21 21:11:00,
2013-05-21 17:16:00,91.4,62.9,30.01,NE,45,6.0,8.3,39,0.00,,,0.00,pywws,2013-05-21 21:16:00,
2013-05-21 17:22:00,89.6,62.7,30.02,SSE,158,3.1,6.0,41,0.00,,,0.00,pywws,2013-05-21 21:22:00,
2013-05-21 17:27:00,89.2,63.8,30.02,NE,45,6.0,8.3,43,0.00,,,0.00,pywws,2013-05-21 21:27:00,
2013-05-21 17:33:00,86.9,63.6,30.02,SW,225,4.5,7.6,46,0.00,,,0.00,pywws,2013-05-21 21:33:00,
2013-05-21 17:39:00,86.2,62.3,30.01,East,90,5.4,8.3,45,0.00,,,0.00,pywws,2013-05-21 21:39:00,
2013-05-21 17:44:00,84.6,62.1,30.01,NE,45,1.6,3.1,47,0.00,,,0.00,pywws,2013-05-21 21:44:00,
2013-05-21 17:50:00,83.5,61.7,30.01,SE,135,3.1,6.9,48,0.00,,,0.00,pywws,2013-05-21 21:50:00,
2013-05-21 17:55:00,83.1,60.2,30.01,South,180,3.1,5.4,46,0.00,,,0.00,pywws,2013-05-21 21:55:00,
2013-05-21 18:01:00,82.8,60.4,30.01,NW,315,2.2,3.1,47,0.00,,,0.00,pywws,2013-05-21 22:01:00,
2013-05-21 18:07:00,83.5,61.1,30.01,SE,135,0.7,1.6,47,0.00,,,0.00,pywws,2013-05-21 22:07:00,
2013-05-21 18:12:00,83.8,60.8,30.01,East,90,2.2,3.8,46,0.00,,,0.00,pywws,2013-05-21 22:12:00,
2013-05-21 18:18:00,83.3,61.5,30.01,East,90,5.4,9.2,48,0.00,,,0.00,pywws,2013-05-21 22:18:00,
2013-05-21 18:23:00,82.8,61.0,30.01,SE,135,1.6,3.8,48,0.00,,,0.00,pywws,2013-05-21 22:23:00,
2013-05-21 18:29:00,82.4,61.3,30.02,SE,135,4.5,6.9,49,0.00,,,0.00,pywws,2013-05-21 22:29:00,
2013-05-21 18:35:00,82.0,62.1,30.01,SE,135,3.1,5.4,51,0.00,,,0.00,pywws,2013-05-21 22:35:00,
2013-05-21 18:40:00,81.7,61.8,30.02,East,90,3.1,7.6,51,0.00,,,0.00,pywws,2013-05-21 22:40:00,
2013-05-21 18:46:00,82.0,62.1,30.02,South,180,2.2,6.0,51,0.00,,,0.00,pywws,2013-05-21 22:46:00,
2013-05-21 18:51:00,81.0,61.1,30.03,South,180,2.2,3.8,51,0.00,,,0.00,pywws,2013-05-21 22:51:00,
2013-05-21 18:57:00,79.2,61.6,30.03,East,90,0.0,0.7,55,0.00,,,0.00,pywws,2013-05-21 22:57:00,
2013-05-21 19:03:00,78.6,62.1,30.04,SW,225,0.7,2.2,57,0.00,,,0.00,pywws,2013-05-21 23:03:00,
2013-05-21 19:08:00,78.1,62.1,30.03,East,90,3.1,4.5,58,0.00,,,0.00,pywws,2013-05-21 23:08:00,
2013-05-21 19:14:00,77.4,61.9,30.03,SW,225,0.7,1.6,59,0.00,,,0.00,pywws,2013-05-21 23:14:00,
2013-05-21 19:19:00,76.6,61.7,30.03,SE,135,1.6,2.2,60,0.00,,,0.00,pywws,2013-05-21 23:19:00,
2013-05-21 19:25:00,76.6,62.2,30.03,NW,315,0.7,1.6,61,0.00,,,0.00,pywws,2013-05-21 23:25:00,
2013-05-21 19:31:00,76.3,61.8,30.03,SE,135,1.6,2.2,61,0.00,,,0.00,pywws,2013-05-21 23:31:00,
2013-05-21 19:36:00,76.1,62.1,30.03,East,90,0.7,2.2,62,0.00,,,0.00,pywws,2013-05-21 23:36:00,
2013-05-21 19:42:00,75.7,62.2,30.03,West,270,1.6,2.2,63,0.00,,,0.00,pywws,2013-05-21 23:42:00,
2013-05-21 19:47:00,75.7,62.7,30.03,South,180,0.7,2.2,64,0.00,,,0.00,pywws,2013-05-21 23:47:00,
2013-05-21 19:53:00,75.2,62.6,30.03,East,90,0.7,1.6,65,0.00,,,0.00,pywws,2013-05-21 23:53:00,
2013-05-21 19:59:00,74.3,62.2,30.04,NE,45,0.0,0.7,66,0.00,,,0.00,pywws,2013-05-21 23:59:00,
2013-05-21 20:04:00,73.9,62.3,30.04,SE,135,0.0,1.6,67,0.00,,,0.00,pywws,2013-05-22 00:04:00,
2013-05-21 20:10:00,73.8,62.1,30.04,South,180,0.7,2.2,67,0.00,,,0.00,pywws,2013-05-22 00:10:00,
2013-05-21 20:15:00,73.4,61.8,30.05,West,270,0.7,1.6,67,0.00,,,0.00,pywws,2013-05-22 00:15:00,
2013-05-21 20:21:00,73.0,61.4,30.05,South,180,0.0,0.7,67,0.00,,,0.00,pywws,2013-05-22 00:21:00,
2013-05-21 20:27:00,73.0,61.8,30.05,South,180,0.7,1.6,68,0.00,,,0.00,pywws,2013-05-22 00:27:00,
2013-05-21 20:32:00,72.7,61.5,30.05,SW,225,0.0,0.0,68,0.00,,,0.00,pywws,2013-05-22 00:32:00,
2013-05-21 20:39:00,72.1,61.8,30.05,SW,225,0.0,0.0,70,0.00,,,0.00,pywws,2013-05-22 00:39:00,
2013-05-21 20:45:00,71.6,61.7,30.05,SW,225,0.0,0.0,71,0.00,,,0.00,pywws,2013-05-22 00:45:00,
2013-05-21 20:51:00,71.2,61.7,30.06,SW,225,0.0,0.7,72,0.00,,,0.00,pywws,2013-05-22 00:51:00,
2013-05-21 20:56:00,71.2,62.1,30.05,North,0,0.0,0.0,73,0.00,,,0.00,pywws,2013-05-22 00:56:00,
2013-05-21 21:02:00,71.1,62.0,30.05,West,270,0.0,0.0,73,0.00,,,0.00,pywws,2013-05-22 01:02:00,
2013-05-21 21:07:00,70.9,62.2,30.05,West,270,0.0,0.0,74,0.00,,,0.00,pywws,2013-05-22 01:07:00,
2013-05-21 21:13:00,70.7,62.4,30.05,West,270,0.0,0.0,75,0.00,,,0.00,pywws,2013-05-22 01:13:00,
2013-05-21 21:19:00,70.3,62.4,30.06,West,270,0.0,0.0,76,0.00,,,0.00,pywws,2013-05-22 01:19:00,
2013-05-21 21:25:00,70.3,62.0,30.06,South,180,0.0,0.0,75,0.00,,,0.00,pywws,2013-05-22 01:25:00,
2013-05-21 21:31:00,71.1,62.7,30.06,North,0,0.7,1.6,75,0.00,,,0.00,pywws,2013-05-22 01:31:00,
2013-05-21 21:36:00,70.7,62.4,30.06,North,0,0.0,0.0,75,0.00,,,0.00,pywws,2013-05-22 01:36:00,
2013-05-21 21:42:00,70.3,61.6,30.06,North,0,0.0,0.0,74,0.00,,,0.00,pywws,2013-05-22 01:42:00,
2013-05-21 21:47:00,70.2,61.5,30.06,North,0,0.0,1.6,74,0.00,,,0.00,pywws,2013-05-22 01:47:00,
2013-05-21 21:54:00,70.0,61.3,30.06,North,0,0.0,0.7,74,0.00,,,0.00,pywws,2013-05-22 01:54:00,
2013-05-21 21:59:00,69.8,60.7,30.06,SW,225,0.0,0.0,73,0.00,,,0.00,pywws,2013-05-22 01:59:00,
2013-05-21 22:05:00,69.4,60.8,30.06,SW,225,0.0,0.7,74,0.00,,,0.00,pywws,2013-05-22 02:05:00,
2013-05-21 22:11:00,69.3,60.2,30.06,SW,225,0.0,0.0,73,0.00,,,0.00,pywws,2013-05-22 02:11:00,
2013-05-21 22:16:00,69.1,60.1,30.06,West,270,0.7,1.6,73,0.00,,,0.00,pywws,2013-05-22 02:16:00,
2013-05-21 22:22:00,69.1,59.7,30.06,SW,225,0.7,1.6,72,0.00,,,0.00,pywws,2013-05-22 02:22:00,
2013-05-21 22:27:00,69.1,60.1,30.06,SW,225,0.0,0.7,73,0.00,,,0.00,pywws,2013-05-22 02:27:00,
2013-05-21 22:33:00,68.9,60.3,30.06,WSW,248,1.6,3.1,74,0.00,,,0.00,pywws,2013-05-22 02:33:00,
2013-05-21 22:39:00,68.9,60.3,30.06,WSW,248,1.6,3.1,74,0.00,,,0.00,pywws,2013-05-22 02:39:00,
2013-05-21 22:44:00,68.4,59.4,30.07,South,180,2.2,3.1,73,0.00,,,0.00,pywws,2013-05-22 02:44:00,
2013-05-21 22:50:00,68.0,59.4,30.07,SW,225,1.6,2.2,74,0.00,,,0.00,pywws,2013-05-22 02:50:00,
2013-05-21 22:55:00,67.6,59.4,30.07,NW,315,0.0,0.7,75,0.00,,,0.00,pywws,2013-05-22 02:55:00,
2013-05-21 23:01:00,67.5,58.9,30.07,West,270,0.0,0.7,74,0.00,,,0.00,pywws,2013-05-22 03:01:00,
2013-05-21 23:07:00,67.6,59.0,30.07,South,180,0.0,1.6,74,0.00,,,0.00,pywws,2013-05-22 03:07:00,
2013-05-21 23:12:00,67.6,59.0,30.07,West,270,0.7,1.6,74,0.00,,,0.00,pywws,2013-05-22 03:12:00,
2013-05-21 23:18:00,67.3,59.1,30.07,East,90,0.0,0.7,75,0.00,,,0.00,pywws,2013-05-22 03:18:00,
2013-05-21 23:23:00,66.9,59.1,30.07,NE,45,0.0,0.0,76,0.00,,,0.00,pywws,2013-05-22 03:23:00,
2013-05-21 23:29:00,66.4,58.9,30.07,SW,225,0.7,1.6,77,0.00,,,0.00,pywws,2013-05-22 03:29:00,
2013-05-21 23:35:00,66.0,59.3,30.07,South,180,0.7,1.6,79,0.00,,,0.00,pywws,2013-05-22 03:35:00,
2013-05-21 23:40:00,66.0,59.0,30.07,South,180,0.0,0.0,78,0.00,,,0.00,pywws,2013-05-22 03:40:00,
2013-05-21 23:46:00,65.7,58.2,30.07,South,180,0.7,1.6,77,0.00,,,0.00,pywws,2013-05-22 03:46:00,
2013-05-21 23:52:00,65.7,58.6,30.07,East,90,0.0,0.0,78,0.00,,,0.00,pywws,2013-05-22 03:52:00,
2013-05-21 23:58:00,65.1,58.8,30.07,East,90,0.0,0.0,80,0.00,,,0.00,pywws,2013-05-22 03:58:00,